メインページ
METAR-TAF:

METAR-TAF

空港 :

アンマン, ヨルダン

緯度: 31-59N, 経度: 035-59E, 海抜: 767m

現時点の気象観測

当レポートは1時間8分前の06:00(UTC)に作成
無風
気温 12°C
湿度 76%
気圧 1005 hPa
視程: 2500m
小雨

METAR: OJAM 240600Z 00000KT 2500 -RA NSC 12/08 Q1005 NOSIG

時間: 09:08 (07:08 UTC)

予報

当レポートは2時間18分前の04:50(UTC)に作成
予報は24日の 06時(UTC)から 25日の 12時(UTC)まで有効
変向風 2kt
視程: 3000m
高度3000ftの雲はほとんどない
高度8000ftの雲は散在している
煙霧
確率 40%
24日の 06時(UTC)から 24日の 12時(UTC)まで
西の風 12kt
視程: 4000m
高度3000ftの雲は散在している
高度8000ftの千切れ雲あり
弱いにわか雨
24日の 12時(UTC)から 24日の 18時(UTC)まで一時的に
西/北西の風 18kt
視程: 3000m
高度3000ftの雲はほとんどない, 積乱雲.
高度3500ftの千切れ雲あり
にわか雨, 風塵
24日の 20時(UTC)から 24日の 22時(UTC)まで徐々に
西の風 15kt、最大25ktの突風を伴う
視程: 2000m
高度3000ftの雲はほとんどない, 積乱雲.
高度3000ftの雲は散在している
高度3500ftの曇り
激しい雷雨, 雨, 靄

TAF: OJAM 240450Z 2406/2512 VRB02KT 3000 HZ FEW030 SCT080 PROB40 2406/2412 28012KT 4000 -SHRA SCT030 BKN080 TEMPO 2412/2418 29018KT 3000 SHRA BLDU FEW030CB BKN035 BECMG 2420/2422 28015G25KT 2000 TSRA BR FEW030CB SCT030 OVC035

4,000以上の空港の気象観測と天気予報(METAR報とTAF報)

利用可能な観測所は地図上に黄色い丸と赤い丸で示す。

丸の上にカーソルを重ねると観測所名を参照できる。

次にクリックすると気象観測と天気予報を参照できる。

マップの切り替え:黒色「×」印の緑ボタンをクリックして拡大、「-」印の緑ボタンをクリックして縮小、緑色の三角印をクリックして隣りの地図に切り替え


METAR-TAF: